Time;durP1;ratioP1;P1;durP2;ratioP2;P2;SDS_P1;SDS_P2;PMS_P1;PMS_P2;Temp;Humidity;BMP_temperature;BMP_pressure;BME280_temperature;BME280_humidity;BME280_pressure;Samples;Min_cycle;Max_cycle;Signal;HPM_P1;HPM_P2
2022/06/02 04:33:30;;;;;;;;;7.00;4.75;;;;;16.64;45.69;101461.44;4959755;28;45267;-62
2022/06/02 04:36:28;;;;;;;;;5.00;5.00;;;;;16.68;45.99;101462.97;4961173;28;45497;-62
2022/06/02 04:39:02;;;;;;;;;5.50;5.50;;;;;16.71;45.80;101478.19;4961379;28;45270;-62
2022/06/02 04:41:57;;;;;;;;;4.00;4.00;;;;;16.72;45.83;101459.16;4960782;28;45347;-63
2022/06/02 04:44:35;;;;;;;;;5.25;5.25;;;;;16.80;45.78;101462.25;4959295;28;45415;-62
2022/06/02 04:47:25;;;;;;;;;6.00;6.00;;;;;16.84;45.52;101466.50;4979887;28;45327;-62
2022/06/02 04:50:08;;;;;;;;;4.75;4.75;;;;;16.86;45.57;101459.19;4980943;28;45890;-62
2022/06/02 04:52:52;;;;;;;;;4.75;4.75;;;;;16.95;45.42;101468.56;4980844;28;46213;-63
2022/06/02 04:56:15;;;;;;;;;5.50;5.50;;;;;17.01;45.69;101463.66;4980903;28;45294;-62
2022/06/02 04:59:07;;;;;;;;;5.75;5.75;;;;;17.07;45.12;101473.25;4931939;28;45311;-62
2022/06/02 05:02:05;;;;;;;;;5.75;5.75;;;;;17.13;44.83;101464.75;4939352;28;45374;-63
2022/06/02 05:04:33;;;;;;;;;8.00;5.00;;;;;17.17;44.49;101458.19;4947561;28;47013;-62
2022/06/02 05:07:08;;;;;;;;;6.50;6.50;;;;;17.13;44.69;101453.91;4980220;28;45386;-62
2022/06/02 05:10:06;;;;;;;;;6.00;6.00;;;;;17.16;44.48;101451.03;4963091;28;45371;-63
2022/06/02 05:13:13;;;;;;;;;8.50;5.75;;;;;17.20;44.50;101454.41;4980938;28;45457;-62
2022/06/02 05:16:03;;;;;;;;;10.00;6.25;;;;;17.24;44.23;101459.53;4980084;28;46406;-62
2022/06/02 05:18:44;;;;;;;;;7.00;6.00;;;;;17.27;44.88;101453.03;4979925;28;45521;-61
2022/06/02 05:21:35;;;;;;;;;5.00;5.00;;;;;17.28;44.93;101460.19;4962748;28;45394;-63
2022/06/02 05:24:48;;;;;;;;;6.00;6.00;;;;;17.32;44.63;101472.63;4980485;28;45254;-62
2022/06/02 05:27:50;;;;;;;;;6.00;6.00;;;;;17.42;44.13;101460.22;4925964;28;46030;-62
2022/06/02 05:30:34;;;;;;;;;10.25;8.00;;;;;17.45;43.96;101460.03;4962166;28;45279;-62
2022/06/02 05:33:18;;;;;;;;;9.75;7.00;;;;;17.47;44.05;101458.09;4979762;28;45236;-62
2022/06/02 05:36:12;;;;;;;;;7.25;7.25;;;;;17.45;43.92;101445.59;4980132;28;45179;-59
2022/06/02 05:39:32;;;;;;;;;5.75;5.75;;;;;17.50;44.56;101455.19;4951443;28;45839;-62
2022/06/02 05:42:13;;;;;;;;;6.00;6.00;;;;;17.60;44.62;101460.91;4964143;28;45529;-62
2022/06/02 05:44:48;;;;;;;;;7.25;7.25;;;;;17.63;43.80;101458.88;4968897;28;45469;-62
2022/06/02 05:48:12;;;;;;;;;7.00;7.00;;;;;17.64;43.87;101460.63;4960482;28;45427;-61
2022/06/02 05:50:56;;;;;;;;;6.75;6.75;;;;;17.64;44.06;101448.91;4892176;28;45378;-61
2022/06/02 05:53:33;;;;;;;;;6.25;6.25;;;;;17.63;43.77;101458.88;4968161;28;45344;-61
2022/06/02 05:56:14;;;;;;;;;10.25;8.75;;;;;17.61;43.45;101466.22;4961492;28;45437;-61
2022/06/02 05:59:18;;;;;;;;;6.50;6.50;;;;;17.58;43.48;101461.00;4978355;28;46240;-60
2022/06/02 06:01:56;;;;;;;;;7.25;6.00;;;;;17.61;44.00;101451.78;4938406;28;45451;-61
2022/06/02 06:04:38;;;;;;;;;6.00;6.00;;;;;17.62;43.82;101454.44;4938571;28;45419;-61
2022/06/02 06:07:14;;;;;;;;;8.50;8.50;;;;;17.62;43.75;101454.44;4953427;28;45564;-61
2022/06/02 06:10:07;;;;;;;;;9.00;9.00;;;;;17.62;44.09;101461.69;4979410;28;45359;-61
2022/06/02 06:12:46;;;;;;;;;7.50;7.50;;;;;17.63;43.65;101464.31;4979234;28;45975;-61
2022/06/02 06:15:22;;;;;;;;;8.50;7.00;;;;;17.69;43.77;101480.19;4977770;28;45483;-60
2022/06/02 06:17:53;;;;;;;;;11.25;10.25;;;;;17.71;43.78;101472.81;4972505;28;46196;-58
2022/06/02 06:20:43;;;;;;;;;6.75;6.75;;;;;17.70;43.54;101465.66;4976211;28;45587;-59
2022/06/02 06:23:33;;;;;;;;;11.50;9.50;;;;;17.69;44.37;101458.47;4973821;28;47359;-59
2022/06/02 06:26:10;;;;;;;;;11.00;7.50;;;;;17.65;43.95;101461.50;4979083;28;45466;-58
2022/06/02 06:28:45;;;;;;;;;12.25;9.75;;;;;17.61;44.33;101466.22;4979399;28;45394;-59
2022/06/02 06:31:19;;;;;;;;;11.00;9.75;;;;;17.59;44.54;101465.47;4978113;28;45544;-59
2022/06/02 06:33:51;;;;;;;;;10.75;10.75;;;;;17.56;44.32;101452.09;4979004;28;46096;-59
2022/06/02 06:36:48;;;;;;;;;8.50;8.50;;;;;17.62;44.59;101453.56;4978315;28;45445;-58
2022/06/02 06:39:14;;;;;;;;;7.75;7.75;;;;;17.74;44.33;101459.09;4979305;28;45411;-57
2022/06/02 06:41:55;;;;;;;;;9.50;9.50;;;;;17.83;44.04;101467.59;4978771;28;45946;-59
2022/06/02 06:44:26;;;;;;;;;10.50;9.00;;;;;17.85;43.71;101469.25;4978940;28;46201;-59
2022/06/02 06:47:06;;;;;;;;;8.00;8.00;;;;;17.85;43.75;101458.41;4978823;28;45411;-59
2022/06/02 06:49:50;;;;;;;;;12.50;11.75;;;;;17.83;43.96;101463.03;4978994;28;45303;-58
2022/06/02 06:52:37;;;;;;;;;9.50;9.25;;;;;17.80;44.00;101460.50;4979081;28;45519;-59
2022/06/02 06:55:24;;;;;;;;;8.50;8.50;;;;;17.81;44.15;101462.25;4979071;28;45405;-58
2022/06/02 06:58:11;;;;;;;;;9.50;9.50;;;;;17.84;44.23;101467.50;4977580;28;45438;-59
2022/06/02 07:00:46;;;;;;;;;9.50;9.50;;;;;17.83;43.85;101467.59;4979105;28;45362;-60
2022/06/02 07:03:33;;;;;;;;;8.75;8.75;;;;;17.84;44.25;101472.06;4978794;28;45352;-59
2022/06/02 07:06:38;;;;;;;;;11.00;10.00;;;;;17.88;44.52;101471.75;4960571;28;47864;-59
2022/06/02 07:09:16;;;;;;;;;10.75;10.75;;;;;17.88;43.68;101473.56;4978524;28;45235;-59
2022/06/02 07:14:56;;;;;;;;;10.25;10.25;;;;;17.90;44.60;101468.94;4978944;28;45370;-59
2022/06/02 07:17:24;;;;;;;;;11.25;9.50;;;;;17.92;44.19;101467.88;4978298;28;46498;-58
2022/06/02 07:20:12;;;;;;;;;12.25;12.25;;;;;17.98;44.13;101480.16;4978168;28;45486;-59
2022/06/02 07:23:00;;;;;;;;;9.25;8.00;;;;;18.04;44.16;101466.19;4978635;28;45375;-59
2022/06/02 07:25:41;;;;;;;;;9.50;9.25;;;;;18.09;43.45;101474.91;4978550;28;45484;-57
2022/06/02 07:28:22;;;;;;;;;8.75;7.75;;;;;18.10;43.61;101477.53;4978212;28;45450;-58
2022/06/02 07:31:11;;;;;;;;;8.25;8.25;;;;;18.18;43.91;101476.16;4978020;28;45759;-59
2022/06/02 07:34:08;;;;;;;;;10.25;10.00;;;;;18.23;43.26;101474.00;4978498;28;45420;-60
2022/06/02 07:36:52;;;;;;;;;8.75;7.75;;;;;18.22;43.03;101477.66;4978234;28;45312;-59
2022/06/02 07:39:20;;;;;;;;;8.00;8.00;;;;;18.22;43.49;101481.25;4978387;28;45983;-59
2022/06/02 07:42:13;;;;;;;;;9.00;9.00;;;;;18.18;43.19;101466.16;4978431;28;45415;-58
2022/06/02 07:44:55;;;;;;;;;8.75;7.50;;;;;18.28;43.11;101471.88;4980388;28;45352;-58
2022/06/02 07:48:03;;;;;;;;;7.25;7.25;;;;;18.36;43.21;101483.94;4981394;28;45369;-59
2022/06/02 07:50:31;;;;;;;;;8.25;8.25;;;;;18.42;42.94;101494.41;4981610;28;47185;-58
2022/06/02 07:53:02;;;;;;;;;9.25;6.00;;;;;18.48;42.72;101490.38;4980604;28;45743;-59
2022/06/02 07:55:49;;;;;;;;;7.00;7.00;;;;;18.54;42.77;101482.69;4981467;28;45323;-59
2022/06/02 07:58:31;;;;;;;;;6.00;6.00;;;;;18.63;42.34;101481.22;4970616;28;45507;-59
2022/06/02 08:01:18;;;;;;;;;8.00;8.00;;;;;18.72;42.22;101477.03;4981506;28;45671;-58
2022/06/02 08:04:33;;;;;;;;;7.00;7.00;;;;;18.80;42.42;101461.94;4981479;28;45322;-60
2022/06/02 08:07:09;;;;;;;;;7.25;7.00;;;;;18.89;42.56;101465.88;4949987;28;45321;-59
2022/06/02 08:09:56;;;;;;;;;6.00;6.00;;;;;18.98;41.33;101465.22;4981463;28;45355;-58
2022/06/02 08:12:31;;;;;;;;;7.75;7.75;;;;;19.04;41.15;101453.09;4979393;28;46102;-60
2022/06/02 08:15:11;;;;;;;;;6.75;6.25;;;;;19.11;41.18;101457.97;4981466;28;45413;-59
2022/06/02 08:17:38;;;;;;;;;5.25;5.25;;;;;19.19;40.47;101449.28;4981314;28;45428;-59
2022/06/02 08:20:24;;;;;;;;;4.75;4.75;;;;;19.28;40.54;101448.63;4981328;28;45258;-58
2022/06/02 08:23:08;;;;;;;;;7.50;7.25;;;;;19.41;40.52;101445.88;4980569;28;46376;-59
2022/06/02 08:25:57;;;;;;;;;6.50;6.00;;;;;19.55;40.33;101440.38;4981323;28;45445;-59
2022/06/02 08:28:35;;;;;;;;;6.00;5.50;;;;;19.72;40.10;101450.03;4971493;28;45251;-59
2022/06/02 08:31:18;;;;;;;;;5.50;5.25;;;;;19.88;39.48;101447.94;4980533;28;45413;-57
2022/06/02 08:34:02;;;;;;;;;3.00;3.00;;;;;20.03;39.24;101428.63;4980426;28;46372;-59
2022/06/02 08:36:33;;;;;;;;;3.50;3.50;;;;;20.13;39.07;101426.06;4980082;28;45298;-59
2022/06/02 08:39:10;;;;;;;;;4.00;4.00;;;;;20.25;38.68;101425.13;4980661;28;45485;-59
2022/06/02 08:42:20;;;;;;;;;4.00;4.00;;;;;20.38;38.07;101425.13;4980504;28;46004;-59
2022/06/02 08:45:18;;;;;;;;;4.00;4.00;;;;;20.50;37.98;101424.16;4979988;28;45381;-57
2022/06/02 08:48:03;;;;;;;;;3.50;3.50;;;;;20.60;37.63;101416.16;4980821;28;45335;-58
2022/06/02 08:50:47;;;;;;;;;4.50;4.00;;;;;20.66;36.85;101426.59;4981043;28;45436;-58
2022/06/02 08:53:21;;;;;;;;;4.00;4.00;;;;;20.67;36.74;101425.63;4979893;28;45651;-58
2022/06/02 08:56:25;;;;;;;;;4.33;4.00;;;;;20.72;37.08;101424.28;4980136;28;46165;-59
2022/06/02 08:59:09;;;;;;;;;4.50;4.00;;;;;20.79;37.00;101416.47;4980744;28;45359;-58
2022/06/02 09:01:53;;;;;;;;;4.75;4.75;;;;;20.85;37.39;101418.72;4980542;28;45344;-58
2022/06/02 09:04:36;;;;;;;;;5.00;5.00;;;;;20.86;37.23;101414.13;4980666;28;45860;-58
2022/06/02 09:07:12;;;;;;;;;4.50;4.50;;;;;20.86;37.32;101417.72;4979827;28;46545;-59
2022/06/02 09:10:07;;;;;;;;;4.00;4.00;;;;;20.88;37.28;101421.22;4980500;28;45449;-59
2022/06/02 09:12:43;;;;;;;;;4.25;4.25;;;;;20.97;37.22;101422.34;4980168;28;45382;-59
2022/06/02 09:15:54;;;;;;;;;5.00;5.00;;;;;21.07;37.32;101426.97;4962606;28;46220;-59
2022/06/02 09:19:00;;;;;;;;;5.75;4.00;;;;;21.14;36.47;101422.75;4964215;28;46366;-59
2022/06/02 09:21:33;;;;;;;;;5.25;5.25;;;;;21.14;36.15;101405.53;4927812;28;45581;-58
2022/06/02 09:24:14;;;;;;;;;8.75;4.75;;;;;21.19;36.11;101419.69;4967448;28;45429;-59
2022/06/02 09:26:59;;;;;;;;;4.25;4.25;;;;;21.21;36.36;101417.72;4979533;28;45310;-58
2022/06/02 09:29:49;;;;;;;;;4.50;4.50;;;;;21.24;36.68;101416.59;4979795;28;45457;-58
2022/06/02 09:32:53;;;;;;;;;4.25;4.25;;;;;21.31;36.79;101418.72;4979787;28;45302;-59
2022/06/02 09:35:27;;;;;;;;;5.00;5.00;;;;;21.30;35.94;101430.63;4980363;28;45322;-59
2022/06/02 09:38:03;;;;;;;;;4.75;4.75;;;;;21.30;36.35;101421.56;4978971;28;45342;-58
2022/06/02 09:40:34;;;;;;;;;5.50;5.50;;;;;21.30;36.52;101419.69;4979754;28;45468;-58
2022/06/02 09:43:15;;;;;;;;;5.25;4.50;;;;;21.33;36.99;101413.16;4979195;28;45413;-59
2022/06/02 09:45:57;;;;;;;;;5.25;4.00;;;;;21.33;36.78;101424.94;4979997;28;45327;-58
2022/06/02 09:48:50;;;;;;;;;3.25;3.25;;;;;21.31;36.33;101423.31;4979214;28;45438;-59
2022/06/02 09:51:42;;;;;;;;;6.75;5.50;;;;;21.28;36.09;101427.13;4979384;28;45336;-58
2022/06/02 09:54:37;;;;;;;;;4.75;4.75;;;;;21.27;35.79;101428.13;4978161;28;45282;-58
2022/06/02 10:00:18;;;;;;;;;6.25;3.75;;;;;21.32;35.85;101423.19;4970238;28;45365;-59
2022/06/02 10:03:08;;;;;;;;;3.75;3.75;;;;;21.38;35.01;101411.78;4979402;28;46250;-57
2022/06/02 10:06:22;;;;;;;;;6.50;3.75;;;;;21.43;35.15;101422.34;4961188;28;45300;-59
2022/06/02 10:09:06;;;;;;;;;2.25;2.00;;;;;21.48;34.68;101406.44;4956954;28;45337;-59
2022/06/02 10:11:55;;;;;;;;;5.75;4.00;;;;;21.54;35.26;101408.66;4962618;28;45909;-58
2022/06/02 10:14:29;;;;;;;;;3.00;3.00;;;;;21.57;35.03;101411.16;4967831;28;46323;-58
2022/06/02 10:17:24;;;;;;;;;3.25;3.25;;;;;21.53;35.13;101405.06;4979349;28;45290;-58
2022/06/02 10:20:25;;;;;;;;;5.00;4.00;;;;;21.56;35.26;101403.09;4979595;28;45393;-59
2022/06/02 10:23:11;;;;;;;;;3.25;3.25;;;;;21.58;35.04;101385.63;4960894;28;45556;-59
2022/06/02 10:26:01;;;;;;;;;2.00;2.00;;;;;21.59;33.97;101389.22;4946144;28;47395;-59
2022/06/02 10:28:51;;;;;;;;;5.25;4.00;;;;;21.61;34.27;101387.19;4976870;28;45301;-59
2022/06/02 10:31:50;;;;;;;;;3.75;3.75;;;;;21.64;34.50;101395.16;4979203;28;45385;-58
2022/06/02 10:34:56;;;;;;;;;4.75;4.25;;;;;21.70;34.44;101398.22;4978898;28;45322;-58
2022/06/02 10:37:28;;;;;;;;;3.25;3.25;;;;;21.76;34.86;101391.41;4918406;28;46225;-59
2022/06/02 10:40:14;;;;;;;;;3.25;3.25;;;;;21.85;35.10;101386.06;4918749;28;45340;-60
2022/06/02 10:43:01;;;;;;;;;4.00;4.00;;;;;22.01;34.70;101393.00;4930345;28;45360;-58
2022/06/02 10:45:35;;;;;;;;;5.00;5.00;;;;;22.06;32.93;101383.44;4979280;28;45342;-57
2022/06/02 10:48:14;;;;;;;;;4.00;4.00;;;;;22.12;33.46;101385.63;4978626;28;46368;-58
2022/06/02 10:51:16;;;;;;;;;3.75;3.75;;;;;22.24;33.31;101384.63;4961432;28;45573;-58
2022/06/02 10:54:16;;;;;;;;;4.00;4.00;;;;;22.42;32.98;101376.72;4979114;28;45401;-60
2022/06/02 10:57:05;;;;;;;;;2.50;2.00;;;;;22.61;32.87;101376.00;4978637;28;45441;-58
2022/06/02 10:59:59;;;;;;;;;3.00;3.00;;;;;22.76;31.94;101369.25;4938104;28;45363;-58
2022/06/02 11:02:49;;;;;;;;;4.00;4.00;;;;;22.97;32.22;101366.47;4978858;28;45290;-57
2022/06/02 11:05:33;;;;;;;;;3.25;3.25;;;;;23.21;32.32;101375.28;4961193;28;45398;-58
2022/06/02 11:08:20;;;;;;;;;5.75;4.00;;;;;23.32;31.42;101355.13;4961178;28;45433;-59
2022/06/02 11:11:02;;;;;;;;;4.00;4.00;;;;;23.45;31.80;101365.88;4978046;28;45599;-58
2022/06/02 11:13:36;;;;;;;;;6.00;4.50;;;;;23.50;31.44;101363.59;4978889;28;45311;-58
2022/06/02 11:16:34;;;;;;;;;3.25;3.25;;;;;23.52;31.89;101347.91;4961408;28;45336;-58
2022/06/02 11:19:04;;;;;;;;;6.25;4.75;;;;;23.63;32.10;101350.56;4960782;28;46792;-57
2022/06/02 11:21:46;;;;;;;;;3.50;3.50;;;;;23.66;31.75;101345.66;4964623;28;47005;-58
2022/06/02 11:24:24;;;;;;;;;3.00;3.00;;;;;23.76;31.66;101349.28;4981803;28;45415;-57
2022/06/02 11:27:27;;;;;;;;;4.25;4.25;;;;;23.89;31.37;101339.94;4981922;28;45343;-58
2022/06/02 11:30:18;;;;;;;;;4.75;3.75;;;;;24.03;31.88;101340.38;4981870;28;45418;-59
2022/06/02 11:33:29;;;;;;;;;6.75;4.00;;;;;24.17;31.87;101330.00;4964128;28;45455;-58
2022/06/02 11:36:28;;;;;;;;;2.50;1.75;;;;;24.34;32.07;101327.44;4981871;28;45346;-57
2022/06/02 11:39:24;;;;;;;;;4.75;4.75;;;;;24.56;31.15;101322.69;4981676;28;45533;-58
2022/06/02 11:41:58;;;;;;;;;6.00;4.75;;;;;24.61;30.59;101323.09;4981573;28;45390;-59
2022/06/02 11:44:46;;;;;;;;;3.00;3.00;;;;;24.64;30.11;101317.31;4981915;28;46292;-57
2022/06/02 11:47:52;;;;;;;;;3.25;3.25;;;;;24.66;29.87;101320.78;4981876;28;45462;-58
2022/06/02 11:50:21;;;;;;;;;4.50;3.50;;;;;24.70;30.49;101322.19;4951919;28;45545;-58
2022/06/02 11:53:10;;;;;;;;;6.50;3.75;;;;;24.73;30.44;101322.78;4963109;28;45372;-57
2022/06/02 11:55:47;;;;;;;;;4.00;3.00;;;;;24.76;30.01;101308.75;4980629;28;45386;-57
2022/06/02 11:58:39;;;;;;;;;3.00;3.00;;;;;24.78;30.28;101300.38;4981189;28;45451;-57
2022/06/02 12:01:13;;;;;;;;;4.25;4.25;;;;;24.91;29.89;101313.78;4981527;28;45413;-58
2022/06/02 12:04:04;;;;;;;;;6.00;4.50;;;;;24.96;29.78;101304.13;4962685;28;45746;-58
2022/06/02 12:07:04;;;;;;;;;5.50;5.50;;;;;25.05;29.39;101316.09;4957092;28;47318;-57
2022/06/02 12:10:25;;;;;;;;;2.50;2.50;;;;;25.12;29.33;101307.09;4968196;28;45387;-57
2022/06/02 12:13:45;;;;;;;;;2.00;2.00;;;;;25.18;29.09;101302.88;4951751;28;45966;-57
2022/06/02 12:16:26;;;;;;;;;4.25;4.00;;;;;25.25;29.38;101296.66;4918522;28;45786;-58
2022/06/02 12:18:57;;;;;;;;;4.50;3.50;;;;;25.31;28.67;101286.06;4904479;28;46664;-57
2022/06/02 12:21:44;;;;;;;;;4.00;3.25;;;;;25.36;28.31;101286.47;4961656;28;45412;-57
2022/06/02 12:24:18;;;;;;;;;1.25;1.25;;;;;25.44;28.99;101276.44;4963684;28;45287;-59
2022/06/02 12:27:02;;;;;;;;;2.75;2.75;;;;;25.59;28.35;101282.34;4981212;28;45317;-57
2022/06/02 12:29:49;;;;;;;;;4.25;3.25;;;;;25.74;28.64;101269.78;4962500;28;46370;-57
2022/06/02 12:32:20;;;;;;;;;5.00;3.50;;;;;25.82;28.93;101258.88;4980872;28;45283;-58
2022/06/02 12:35:04;;;;;;;;;2.25;2.25;;;;;25.89;29.23;101257.25;4963388;28;45352;-58
2022/06/02 12:37:55;;;;;;;;;4.75;3.50;;;;;26.00;28.00;101253.41;4981035;28;45354;-57
2022/06/02 12:40:47;;;;;;;;;5.00;3.00;;;;;26.05;27.36;101247.41;4940686;28;47151;-57
2022/06/02 12:43:51;;;;;;;;;5.00;4.00;;;;;26.19;27.67;101255.13;4980954;28;45493;-58
2022/06/02 12:46:23;;;;;;;;;3.00;2.75;;;;;26.29;27.63;101253.16;4980866;28;45469;-57
2022/06/02 12:49:30;;;;;;;;;6.50;5.00;;;;;26.36;27.68;101251.50;4980585;28;45290;-57
2022/06/02 12:52:33;;;;;;;;;5.25;4.00;;;;;26.46;26.79;101251.38;4961548;28;45645;-58
2022/06/02 12:55:19;;;;;;;;;4.00;4.00;;;;;26.52;26.84;101240.63;4980706;28;45361;-58
2022/06/02 12:58:18;;;;;;;;;3.00;3.00;;;;;26.54;26.32;101244.06;4980249;28;45420;-57
2022/06/02 13:00:50;;;;;;;;;3.00;3.00;;;;;26.60;26.10;101246.19;4980760;28;45381;-58
2022/06/02 13:03:18;;;;;;;;;5.00;4.00;;;;;26.72;26.04;101235.75;4980789;28;46033;-56
2022/06/02 13:06:27;;;;;;;;;4.25;4.00;;;;;26.73;25.81;101237.47;4980348;28;45443;-58
2022/06/02 13:09:01;;;;;;;;;4.00;4.00;;;;;26.74;26.38;101241.94;4949826;28;45346;-58
2022/06/02 13:11:52;;;;;;;;;3.75;3.75;;;;;26.79;26.01;101233.22;4980249;28;45489;-57
2022/06/02 13:14:42;;;;;;;;;4.00;3.75;;;;;26.86;26.37;101237.91;4959828;28;47078;-58
2022/06/02 13:17:32;;;;;;;;;3.00;3.00;;;;;27.03;26.41;101231.50;4977422;28;45562;-57
2022/06/02 13:20:13;;;;;;;;;3.25;3.25;;;;;27.24;26.27;101233.78;4980515;28;45344;-57
2022/06/02 13:23:09;;;;;;;;;3.75;3.75;;;;;27.40;26.22;101236.59;4980385;28;46268;-57
2022/06/02 13:26:06;;;;;;;;;3.75;3.75;;;;;27.60;25.72;101233.59;4979953;28;46325;-58
2022/06/02 13:28:58;;;;;;;;;3.50;3.50;;;;;27.66;25.19;101233.78;4979845;28;45410;-57
2022/06/02 13:31:42;;;;;;;;;3.50;3.50;;;;;27.85;25.38;101227.09;4980341;28;45352;-56
2022/06/02 13:34:36;;;;;;;;;2.25;2.25;;;;;28.07;25.22;101233.84;4980368;28;45497;-57
2022/06/02 13:37:10;;;;;;;;;3.00;3.00;;;;;28.27;24.12;101209.56;4980217;28;45395;-58
2022/06/02 13:39:53;;;;;;;;;3.25;2.25;;;;;28.43;23.56;101235.22;4980263;28;45477;-57
2022/06/02 13:42:46;;;;;;;;;3.00;3.00;;;;;28.61;23.14;101230.34;4962604;28;45336;-57
2022/06/02 13:45:50;;;;;;;;;3.75;3.75;;;;;28.87;22.85;101235.66;4962635;28;45413;-57
2022/06/02 13:48:27;;;;;;;;;3.00;2.00;;;;;28.96;22.53;101219.94;4979904;28;45405;-56
2022/06/02 13:51:41;;;;;;;;;1.00;1.00;;;;;29.22;23.00;101231.56;4980084;28;45329;-57
2022/06/02 13:57:30;;;;;;;;;2.00;2.00;;;;;29.66;21.53;101215.31;4979573;28;45400;-57
2022/06/02 14:00:17;;;;;;;;;3.75;2.00;;;;;30.03;21.05;101210.88;4969613;28;45788;-57
2022/06/02 14:03:13;;;;;;;;;2.00;2.00;;;;;30.30;21.37;101214.97;4979577;28;45294;-57
2022/06/02 14:06:07;;;;;;;;;4.00;4.00;;;;;30.58;20.82;101216.13;4980112;28;45358;-57
2022/06/02 14:09:06;;;;;;;;;2.00;2.00;;;;;30.91;19.88;101215.75;4979809;28;45338;-57
2022/06/02 14:11:41;;;;;;;;;2.00;2.00;;;;;31.04;20.04;101205.72;4979213;28;45385;-57
2022/06/02 14:14:42;;;;;;;;;4.00;2.25;;;;;31.51;19.57;101209.94;4962010;28;45342;-57
2022/06/02 14:17:24;;;;;;;;;2.25;2.25;;;;;32.04;18.56;101214.16;4979638;28;45386;-58
2022/06/02 14:20:17;;;;;;;;;3.00;3.00;;;;;32.53;18.30;101205.84;4979619;28;45426;-58
2022/06/02 14:22:53;;;;;;;;;1.25;1.25;;;;;33.06;18.68;101197.88;4979629;28;45291;-57
2022/06/02 14:25:37;;;;;;;;;2.00;2.00;;;;;33.48;17.82;101198.72;4979477;28;45424;-58
2022/06/02 14:28:39;;;;;;;;;5.00;3.50;;;;;33.79;17.14;101199.88;4961906;28;45350;-57
2022/06/02 14:31:06;;;;;;;;;2.00;2.00;;;;;34.03;17.26;101184.50;4961842;28;45399;-58
2022/06/02 14:33:35;;;;;;;;;4.50;2.50;;;;;34.26;16.88;101186.06;4961580;28;48147;-58
2022/06/02 14:36:40;;;;;;;;;2.00;2.00;;;;;34.34;16.47;101185.84;4961891;28;45486;-58
2022/06/02 14:39:15;;;;;;;;;4.00;2.75;;;;;34.60;16.41;101183.00;4961775;28;45381;-58
2022/06/02 14:41:43;;;;;;;;;2.00;2.00;;;;;34.90;16.05;101180.59;4979088;28;45408;-57
2022/06/02 14:44:16;;;;;;;;;0.75;0.75;;;;;35.20;14.72;101169.78;4979226;28;45394;-57
2022/06/02 14:47:12;;;;;;;;;2.00;2.00;;;;;35.48;15.30;101170.28;4961625;28;45827;-59
2022/06/02 14:49:58;;;;;;;;;2.00;2.00;;;;;35.53;14.75;101169.63;4961783;28;45351;-58
2022/06/02 14:52:32;;;;;;;;;2.50;2.50;;;;;35.45;14.98;101173.53;4953874;28;46277;-57
2022/06/02 14:55:16;;;;;;;;;3.00;2.00;;;;;35.24;14.59;101177.50;4979136;28;45455;-57
2022/06/02 14:57:50;;;;;;;;;2.00;1.00;;;;;35.17;15.67;101165.50;4973777;28;46097;-57
2022/06/02 15:00:26;;;;;;;;;2.00;2.00;;;;;35.29;14.95;101174.06;4978903;28;45495;-57
2022/06/02 15:03:13;;;;;;;;;3.00;1.75;;;;;35.39;15.00;101171.63;4961295;28;45702;-58
2022/06/02 15:05:59;;;;;;;;;1.75;1.75;;;;;35.50;14.71;101175.66;4979040;28;45419;-58
2022/06/02 15:09:01;;;;;;;;;2.00;2.00;;;;;35.46;15.30;101166.88;4979211;28;45275;-58
2022/06/02 15:12:02;;;;;;;;;3.00;1.50;;;;;35.68;15.20;101156.22;4978906;28;45413;-58
2022/06/02 15:14:53;;;;;;;;;4.75;2.00;;;;;35.74;14.83;101146.97;4944099;28;45665;-57
2022/06/02 15:17:34;;;;;;;;;2.00;2.00;;;;;35.82;14.56;101160.66;4978767;28;45377;-58
2022/06/02 15:20:09;;;;;;;;;1.75;1.75;;;;;35.54;14.83;101160.19;4979173;28;45411;-59
2022/06/02 15:23:03;;;;;;;;;1.75;1.75;;;;;35.10;15.37;101169.38;4974575;28;45485;-59
2022/06/02 15:25:40;;;;;;;;;2.00;2.00;;;;;34.75;15.06;101164.16;4964023;28;45484;-58
2022/06/02 15:28:34;;;;;;;;;1.50;1.50;;;;;34.39;15.49;101153.47;4961440;28;46750;-58
2022/06/02 15:31:17;;;;;;;;;2.00;1.00;;;;;34.10;15.85;101165.03;4961261;28;45367;-58
2022/06/02 15:34:01;;;;;;;;;2.25;1.25;;;;;33.95;15.81;101164.38;4978682;28;45338;-58
2022/06/02 15:36:44;;;;;;;;;2.00;2.00;;;;;33.85;15.87;101166.75;4978467;28;45269;-57
2022/06/02 15:39:49;;;;;;;;;2.00;2.00;;;;;33.95;15.57;101156.88;4978573;28;45355;-58
2022/06/02 15:42:36;;;;;;;;;3.00;1.75;;;;;34.00;15.59;101159.91;4978386;28;45319;-57
2022/06/02 15:45:39;;;;;;;;;1.00;1.00;;;;;33.83;15.71;101163.31;4976753;28;45295;-57
2022/06/02 15:48:28;;;;;;;;;2.00;2.00;;;;;33.53;15.67;101146.97;4975717;28;45500;-58
2022/06/02 15:51:23;;;;;;;;;2.00;2.00;;;;;33.42;15.85;101158.72;4978224;28;46477;-57
2022/06/02 15:54:33;;;;;;;;;1.00;1.00;;;;;33.10;15.69;101156.63;4978312;28;45300;-57
2022/06/02 15:57:36;;;;;;;;;1.00;1.00;;;;;32.92;16.19;101149.72;4978207;28;45331;-57
2022/06/02 16:00:17;;;;;;;;;2.25;2.00;;;;;32.96;16.12;101159.38;4976605;28;45560;-58
2022/06/02 16:03:03;;;;;;;;;2.00;2.00;;;;;33.05;16.39;101162.81;4965852;28;46288;-57
2022/06/02 16:05:44;;;;;;;;;2.25;1.00;;;;;33.05;16.00;101162.81;4977800;28;45924;-57
2022/06/02 16:08:28;;;;;;;;;2.00;2.00;;;;;32.92;17.01;101158.03;4963851;28;45404;-57
2022/06/02 16:11:14;;;;;;;;;1.00;1.00;;;;;32.77;17.10;101156.47;4960274;28;46967;-57
2022/06/02 16:13:49;;;;;;;;;1.25;1.25;;;;;32.56;17.19;101162.97;4976879;28;45461;-58
2022/06/02 16:16:52;;;;;;;;;4.00;3.00;;;;;32.33;17.08;101149.31;4963283;28;45566;-57
2022/06/02 16:19:36;;;;;;;;;1.50;1.50;;;;;32.06;17.70;101161.28;4981336;28;45382;-64
2022/06/02 16:22:16;;;;;;;;;1.50;1.50;;;;;31.80;17.65;101157.22;4981046;28;45391;-60
2022/06/02 16:24:57;;;;;;;;;4.00;1.50;;;;;31.57;17.98;101151.81;4963442;28;47338;-59
2022/06/02 16:27:57;;;;;;;;;3.00;2.25;;;;;31.54;18.18;101154.13;4963339;28;45642;-59
2022/06/02 16:30:29;;;;;;;;;3.00;3.00;;;;;31.43;18.00;101151.88;4963616;28;45390;-60
2022/06/02 16:33:05;;;;;;;;;1.00;1.00;;;;;31.34;18.42;101142.81;4980712;28;45448;-60
2022/06/02 16:36:02;;;;;;;;;2.00;2.00;;;;;31.25;18.60;101148.66;4981122;28;45465;-58
2022/06/02 16:39:00;;;;;;;;;2.00;2.00;;;;;31.19;18.76;101142.00;4963162;28;45383;-59
2022/06/02 16:41:42;;;;;;;;;2.00;2.00;;;;;31.18;18.37;101143.06;4980908;28;45342;-59
2022/06/02 16:44:10;;;;;;;;;4.00;3.00;;;;;31.22;18.47;101143.53;4981127;28;45362;-60
2022/06/02 16:46:54;;;;;;;;;4.00;2.75;;;;;31.14;18.00;101142.59;4980913;28;46487;-62
2022/06/02 16:49:29;;;;;;;;;6.00;2.00;;;;;31.13;18.70;101143.66;4962621;28;45445;-60
2022/06/02 16:52:20;;;;;;;;;1.00;1.00;;;;;31.11;18.19;101131.91;4963695;28;45262;-60
2022/06/02 16:55:04;;;;;;;;;2.25;2.25;;;;;30.99;19.23;101143.63;4981062;28;45282;-60
2022/06/02 16:57:50;;;;;;;;;1.50;1.50;;;;;30.87;18.93;101142.44;4980459;28;45234;-61
2022/06/02 17:00:46;;;;;;;;;2.00;2.00;;;;;30.75;18.80;101142.91;4963188;28;45328;-59
2022/06/02 17:03:36;;;;;;;;;4.25;3.00;;;;;30.60;18.55;101131.00;4963353;28;45255;-59
2022/06/02 17:06:24;;;;;;;;;4.25;3.00;;;;;30.45;18.51;101139.25;4963179;28;46145;-60
2022/06/02 17:09:16;;;;;;;;;1.25;1.25;;;;;30.42;19.44;101136.00;4980804;28;46239;-60
2022/06/02 17:11:48;;;;;;;;;2.50;1.50;;;;;30.38;18.93;101143.81;4959743;28;45406;-60
2022/06/02 17:14:30;;;;;;;;;3.75;3.75;;;;;30.29;19.75;101133.03;4968163;28;45473;-59
2022/06/02 17:17:32;;;;;;;;;2.00;2.00;;;;;30.07;19.01;101129.28;4980434;28;45530;-59
2022/06/02 17:20:28;;;;;;;;;2.00;2.00;;;;;30.01;19.57;101136.44;4969895;28;45408;-59
2022/06/02 17:23:21;;;;;;;;;2.75;2.00;;;;;29.72;19.54;101128.00;4980742;28;45349;-65
2022/06/02 17:26:08;;;;;;;;;2.00;2.00;;;;;29.50;19.99;101138.03;4980646;28;45394;-64
2022/06/02 17:28:57;;;;;;;;;1.00;1.00;;;;;29.26;20.43;101139.00;4980398;28;45434;-64
2022/06/02 17:31:52;;;;;;;;;3.00;2.00;;;;;29.00;20.81;101135.75;4980031;28;45692;-65
2022/06/02 17:34:29;;;;;;;;;2.25;1.75;;;;;28.84;20.81;101142.16;4962132;28;45528;-63
2022/06/02 17:37:03;;;;;;;;;4.00;2.00;;;;;28.69;21.83;101138.41;4980372;28;45206;-67